Time;durP1;ratioP1;P1;durP2;ratioP2;P2;SDS_P1;SDS_P2;PMS_P1;PMS_P2;Temp;Humidity;BMP_temperature;BMP_pressure;BME280_temperature;BME280_humidity;BME280_pressure;Samples;Min_cycle;Max_cycle;Signal;HPM_P1;HPM_P2
2023/08/07 00:03:17;;;;;;;2.40;1.45;;;20.60;99.90;;;;;;4590225;19;19986;-25
2023/08/07 00:04:48;;;;;;;2.22;1.33;;;20.60;99.90;;;;;;4591055;19;20010;-30
2023/08/07 00:06:20;;;;;;;1.75;1.30;;;20.60;99.90;;;;;;4591465;19;20006;-25
2023/08/07 00:07:52;;;;;;;2.33;1.45;;;20.60;99.90;;;;;;4589862;19;20007;-25
2023/08/07 00:09:24;;;;;;;1.63;1.30;;;20.60;99.90;;;;;;4589734;19;20050;-28
2023/08/07 00:11:05;;;;;;;1.40;1.17;;;20.60;99.90;;;;;;4589929;19;20463;-25
2023/08/07 00:12:36;;;;;;;1.57;1.20;;;20.60;99.90;;;;;;4590521;19;20006;-25
2023/08/07 00:14:07;;;;;;;1.88;1.10;;;20.60;99.90;;;;;;4590385;19;20437;-28
2023/08/07 00:15:38;;;;;;;3.05;1.15;;;20.60;99.90;;;;;;4590684;19;20028;-25
2023/08/07 00:17:10;;;;;;;1.70;1.15;;;20.60;99.90;;;;;;4591142;19;20021;-25
2023/08/07 00:18:42;;;;;;;;;;;20.50;99.90;;;;;;4590348;19;20497;-28
2023/08/07 00:20:13;;;;;;;2.72;1.10;;;20.60;99.90;;;;;;4589912;19;19935;-32
2023/08/07 00:21:44;;;;;;;1.75;1.08;;;20.60;99.90;;;;;;4591032;19;20047;-29
2023/08/07 00:23:16;;;;;;;2.25;1.40;;;20.60;99.90;;;;;;4589535;19;20430;-25
2023/08/07 00:24:47;;;;;;;1.48;1.35;;;20.60;99.90;;;;;;4589389;19;20011;-25
2023/08/07 00:26:17;;;;;;;1.75;1.50;;;20.60;99.90;;;;;;4589660;19;20018;-29
2023/08/07 00:27:49;;;;;;;2.40;1.80;;;20.60;99.90;;;;;;4589243;19;20015;-27
2023/08/07 00:29:23;;;;;;;2.95;1.67;;;20.60;99.90;;;;;;4589764;19;20362;-28
2023/08/07 00:30:55;;;;;;;2.00;1.35;;;20.60;99.90;;;;;;4589983;19;20037;-29
2023/08/07 00:32:26;;;;;;;;;;;20.60;99.90;;;;;;4591242;19;20015;-26
2023/08/07 00:33:59;;;;;;;1.90;1.30;;;20.60;99.90;;;;;;4590637;19;19919;-26
2023/08/07 00:35:31;;;;;;;3.38;1.60;;;20.60;99.90;;;;;;4589643;19;20008;-30
2023/08/07 00:37:04;;;;;;;2.20;1.40;;;20.60;99.90;;;;;;4589137;19;20033;-26
2023/08/07 00:38:35;;;;;;;3.40;1.83;;;20.60;99.90;;;;;;4588312;19;20459;-25
2023/08/07 00:40:08;;;;;;;1.95;1.42;;;20.60;99.90;;;;;;4589504;19;20062;-24
2023/08/07 00:41:39;;;;;;;2.40;1.60;;;20.60;99.90;;;;;;4590303;19;20015;-24
2023/08/07 00:43:12;;;;;;;2.25;1.65;;;20.60;99.90;;;;;;4589020;19;20025;-28
2023/08/07 00:44:45;;;;;;;2.70;1.30;;;20.60;99.90;;;;;;4590148;19;20464;-25
2023/08/07 00:46:16;;;;;;;1.50;1.27;;;20.50;99.90;;;;;;4590775;19;20025;-26
2023/08/07 00:47:48;;;;;;;;;;;20.50;99.90;;;;;;4588940;19;20006;-24
2023/08/07 00:49:19;;;;;;;1.77;1.50;;;20.50;99.90;;;;;;4588730;19;19918;-25
2023/08/07 00:50:52;;;;;;;1.63;1.20;;;20.50;99.90;;;;;;4589231;19;20014;-28
2023/08/07 00:52:25;;;;;;;2.55;1.38;;;20.50;99.90;;;;;;4590404;19;20011;-26
2023/08/07 00:53:57;;;;;;;1.20;1.10;;;20.50;99.90;;;;;;4588832;19;20487;-26
2023/08/07 00:55:30;;;;;;;2.30;1.20;;;20.50;99.90;;;;;;4589128;19;20383;-28
2023/08/07 00:57:12;;;;;;;2.10;1.08;;;20.50;99.90;;;;;;4589659;19;20019;-29
2023/08/07 00:58:44;;;;;;;1.38;1.05;;;20.50;99.90;;;;;;4589375;19;20444;-28
2023/08/07 01:00:18;;;;;;;2.35;1.15;;;20.50;99.90;;;;;;4588699;19;20003;-25
2023/08/07 01:01:49;;;;;;;;;;;20.50;99.90;;;;;;4589575;19;20341;-26
2023/08/07 01:03:20;;;;;;;2.95;1.10;;;20.50;99.90;;;;;;4589912;19;20355;-25
2023/08/07 01:04:52;;;;;;;2.47;1.40;;;20.50;99.90;;;;;;4590476;19;20018;-29
2023/08/07 01:06:25;;;;;;;1.77;1.52;;;20.50;99.90;;;;;;4589549;19;20022;-25
2023/08/07 01:07:56;;;;;;;2.13;1.58;;;20.50;99.90;;;;;;4587643;19;20010;-25
2023/08/07 01:09:29;;;;;;;2.70;1.20;;;20.50;99.90;;;;;;4589009;19;20036;-25
2023/08/07 01:11:20;;;;;;;1.67;1.13;;;20.50;99.90;;;;;;4590110;19;20340;-25
2023/08/07 01:13:14;;;;;;;1.77;1.20;;;20.50;99.90;;;;;;4590203;19;20018;-25
2023/08/07 01:14:51;;;;;;;2.83;1.15;;;20.50;99.90;;;;;;4588585;19;20015;-25
2023/08/07 01:16:34;;;;;;;1.65;1.30;;;20.50;99.90;;;;;;4588832;19;20018;-25
2023/08/07 01:18:07;;;;;;;2.03;1.10;;;20.50;99.90;;;;;;4587829;19;20018;-31
2023/08/07 01:19:40;;;;;;;2.58;0.90;;;20.50;99.90;;;;;;4589060;19;20011;-27
2023/08/07 01:21:20;;;;;;;1.75;1.00;;;20.50;99.90;;;;;;4587979;19;20503;-29
2023/08/07 01:22:52;;;;;;;1.48;1.02;;;20.50;99.90;;;;;;4588425;19;20024;-28
2023/08/07 01:24:25;;;;;;;1.98;1.10;;;20.50;99.90;;;;;;4589420;19;20068;-27
2023/08/07 01:25:58;;;;;;;1.33;0.90;;;20.50;99.90;;;;;;4589917;19;20003;-25
2023/08/07 01:27:37;;;;;;;1.40;0.88;;;20.50;99.90;;;;;;4588134;19;20010;-25
2023/08/07 01:29:17;;;;;;;1.23;0.80;;;20.50;99.90;;;;;;4588439;19;20015;-27
2023/08/07 01:30:50;;;;;;;2.38;0.80;;;20.50;99.90;;;;;;4588597;19;20475;-28
2023/08/07 01:32:48;;;;;;;6.10;1.33;;;20.50;99.90;;;;;;4588610;19;20005;-25
2023/08/07 01:34:20;;;;;;;1.42;0.93;;;20.50;99.90;;;;;;4587216;19;20041;-25
2023/08/07 01:35:56;;;;;;;2.85;1.30;;;20.50;99.90;;;;;;4587772;19;20002;-25
2023/08/07 01:37:30;;;;;;;2.97;1.10;;;20.50;99.90;;;;;;4586961;19;20011;-26
2023/08/07 01:39:06;;;;;;;1.73;1.20;;;20.40;99.90;;;;;;4587337;19;20025;-25
2023/08/07 01:40:39;;;;;;;3.05;1.20;;;20.50;99.90;;;;;;4587519;19;20332;-25
2023/08/07 01:42:12;;;;;;;1.52;1.10;;;20.50;99.90;;;;;;4587219;19;19998;-25
2023/08/07 01:43:45;;;;;;;1.85;1.13;;;20.50;99.90;;;;;;4587008;19;20015;-27
2023/08/07 01:45:25;;;;;;;1.40;1.02;;;20.50;99.90;;;;;;4587247;19;20026;-30
2023/08/07 01:46:56;;;;;;;2.90;1.10;;;20.50;99.90;;;;;;4586781;19;20006;-25
2023/08/07 01:48:29;;;;;;;2.08;1.20;;;20.50;99.90;;;;;;4586974;19;20022;-26
2023/08/07 01:50:00;;;;;;;1.92;1.15;;;20.50;99.90;;;;;;4589449;19;20593;-28
2023/08/07 07:42:56;;;;;;;3.33;1.42;;;21.80;99.90;;;;;;4586429;19;20043;-31
2023/08/07 07:44:28;;;;;;;1.88;1.10;;;21.80;99.90;;;;;;4590537;19;20002;-29
2023/08/07 07:47:50;;;;;;;3.05;1.40;;;21.80;99.90;;;;;;4589652;19;20070;-27
2023/08/07 07:49:22;;;;;;;2.20;1.52;;;21.80;99.90;;;;;;4590073;19;20126;-30
2023/08/07 07:51:01;;;;;;;1.50;1.02;;;21.80;99.90;;;;;;4589412;19;20047;-26
2023/08/07 07:52:43;;;;;;;2.17;1.33;;;21.80;99.90;;;;;;4590465;19;20002;-25
2023/08/07 07:54:14;;;;;;;2.47;1.40;;;21.80;99.90;;;;;;4589545;19;20023;-26
2023/08/07 07:55:48;;;;;;;2.28;1.27;;;21.80;99.90;;;;;;4589361;19;20049;-26
2023/08/07 07:57:19;;;;;;;1.77;1.33;;;21.70;99.90;;;;;;4590619;19;20078;-26
2023/08/07 07:58:53;;;;;;;3.70;1.52;;;21.50;99.90;;;;;;4590716;19;20018;-30
2023/08/07 08:00:26;;;;;;;2.72;1.30;;;21.40;99.90;;;;;;4589573;19;20011;-27
2023/08/07 08:02:01;;;;;;;3.38;1.50;;;21.30;99.90;;;;;;4592252;19;20014;-27
2023/08/07 08:03:40;;;;;;;1.58;1.10;;;21.20;99.90;;;;;;4590886;19;20019;-26
2023/08/07 08:05:12;;;;;;;3.80;1.35;;;21.10;99.90;;;;;;4591011;19;20422;-25
2023/08/07 08:06:43;;;;;;;2.92;1.00;;;21.10;99.90;;;;;;4588041;19;20081;-28
2023/08/07 08:08:14;;;;;;;2.30;1.35;;;21.10;99.90;;;;;;4587985;19;20018;-26
2023/08/07 08:09:45;;;;;;;1.63;0.98;;;21.10;99.90;;;;;;4590404;19;20014;-25
2023/08/07 08:11:17;;;;;;;1.95;1.00;;;21.10;99.90;;;;;;4591154;19;20550;-30
2023/08/07 08:12:49;;;;;;;3.80;2.13;;;21.10;99.90;;;;;;4589272;19;20021;-26
2023/08/07 08:14:20;;;;;;;2.88;1.40;;;21.10;99.90;;;;;;4590073;19;20013;-30
2023/08/07 08:15:51;;;;;;;1.95;1.30;;;21.00;99.90;;;;;;4589818;19;20342;-25
2023/08/07 08:17:23;;;;;;;2.25;1.33;;;21.00;99.90;;;;;;4586487;19;20018;-27
2023/08/07 08:18:55;;;;;;;2.10;1.50;;;21.00;99.90;;;;;;4588571;19;20018;-31
2023/08/07 08:20:26;;;;;;;2.30;1.25;;;21.10;99.90;;;;;;4589229;19;20025;-26
2023/08/07 08:21:57;;;;;;;1.88;1.13;;;21.00;99.90;;;;;;4588081;19;20010;-26
2023/08/07 08:23:28;;;;;;;4.05;1.17;;;21.00;99.90;;;;;;4588495;19;20015;-28
2023/08/07 08:24:59;;;;;;;2.45;1.42;;;21.00;99.90;;;;;;4589188;19;20019;-25
2023/08/07 08:26:32;;;;;;;1.23;0.90;;;21.00;99.90;;;;;;4589273;19;20026;-26
2023/08/07 08:28:04;;;;;;;2.33;1.33;;;20.90;99.90;;;;;;4588518;19;20018;-28
2023/08/07 08:29:35;;;;;;;1.77;1.10;;;20.90;99.90;;;;;;4588405;19;20018;-32
2023/08/07 08:32:56;;;;;;;2.75;1.33;;;20.90;99.90;;;;;;4589833;19;20430;-30
2023/08/07 08:34:27;;;;;;;2.20;1.17;;;21.00;99.90;;;;;;4589466;19;20467;-26
2023/08/07 08:35:59;;;;;;;;;;;21.00;99.90;;;;;;4590607;19;20102;-26
2023/08/07 08:37:30;;;;;;;2.65;1.35;;;21.20;99.90;;;;;;4588414;19;19959;-26
2023/08/07 08:39:01;;;;;;;2.30;1.60;;;21.30;99.90;;;;;;4589974;19;20014;-30
2023/08/07 08:40:33;;;;;;;;;;;21.20;99.90;;;;;;4588774;19;20018;-26
2023/08/07 08:42:05;;;;;;;4.18;1.50;;;21.30;99.90;;;;;;4588002;19;19918;-29
2023/08/07 08:43:37;;;;;;;;;;;21.40;99.90;;;;;;4590783;19;20037;-30
2023/08/07 08:45:11;;;;;;;2.47;1.58;;;21.30;99.90;;;;;;4588460;19;19915;-25
2023/08/07 08:46:42;;;;;;;2.17;1.15;;;21.20;99.90;;;;;;4589384;19;20006;-26
2023/08/07 08:48:18;;;;;;;3.75;1.50;;;21.20;99.90;;;;;;4587217;19;20035;-26
2023/08/07 08:50:04;;;;;;;2.85;1.38;;;21.20;99.90;;;;;;4588537;19;20014;-26
2023/08/07 08:51:35;;;;;;;2.88;1.48;;;21.20;99.90;;;;;;4587881;19;20078;-26
2023/08/07 08:53:07;;;;;;;1.65;1.00;;;21.10;99.90;;;;;;4588650;19;20018;-32
2023/08/07 08:54:45;;;;;;;2.50;1.17;;;21.10;99.90;;;;;;4589215;19;20014;-26
2023/08/07 08:56:24;;;;;;;2.03;1.25;;;21.20;99.90;;;;;;4588685;19;20018;-25
2023/08/07 08:58:02;;;;;;;3.20;1.20;;;21.20;99.90;;;;;;4587538;19;20106;-29
2023/08/07 08:59:34;;;;;;;4.35;1.52;;;21.40;99.90;;;;;;4590846;19;20025;-26
2023/08/07 09:01:04;;;;;;;;;;;21.40;99.90;;;;;;4592036;19;20048;-26
2023/08/07 09:02:35;;;;;;;2.30;1.20;;;21.30;99.90;;;;;;4594852;19;19918;-26
2023/08/07 09:04:10;;;;;;;;;;;21.20;99.90;;;;;;4593432;19;20479;-26
2023/08/07 09:05:59;;;;;;;2.90;1.35;;;21.20;99.90;;;;;;4594372;19;19918;-26
2023/08/07 09:07:39;;;;;;;1.58;1.13;;;21.20;99.90;;;;;;4594412;19;20027;-27
2023/08/07 09:09:27;;;;;;;2.13;1.00;;;21.20;99.90;;;;;;4593071;19;20078;-28
2023/08/07 09:11:08;;;;;;;2.33;1.10;;;21.20;99.90;;;;;;4591241;19;20459;-26
2023/08/07 09:13:08;;;;;;;2.67;1.60;;;21.30;99.90;;;;;;4592510;19;20093;-26
2023/08/07 09:14:51;;;;;;;2.40;1.47;;;21.20;99.90;;;;;;4592822;19;20022;-26
2023/08/07 09:16:31;;;;;;;2.97;1.60;;;21.30;99.90;;;;;;4594497;19;20018;-25
2023/08/07 09:18:11;;;;;;;1.58;1.08;;;21.30;99.90;;;;;;4592768;19;20014;-30
2023/08/07 09:19:54;;;;;;;2.92;1.55;;;21.20;99.90;;;;;;4593081;19;20034;-25
2023/08/07 09:21:34;;;;;;;2.30;1.30;;;21.40;99.90;;;;;;4591560;19;20033;-26
2023/08/07 09:23:16;;;;;;;3.22;1.33;;;21.60;99.90;;;;;;4591572;19;20025;-29
2023/08/07 09:24:59;;;;;;;2.60;1.30;;;21.70;99.90;;;;;;4593705;19;20093;-26
2023/08/07 09:26:43;;;;;;;2.63;1.35;;;21.60;99.90;;;;;;4594350;19;20037;-26
2023/08/07 09:28:23;;;;;;;3.63;1.58;;;21.60;99.90;;;;;;4590963;19;20557;-27
2023/08/07 09:30:11;;;;;;;1.92;1.30;;;21.70;99.90;;;;;;4593772;19;20543;-28
2023/08/07 09:31:49;;;;;;;2.42;1.33;;;21.60;99.90;;;;;;4590678;19;20451;-27
2023/08/07 09:33:30;;;;;;;2.13;1.45;;;21.40;99.90;;;;;;4593665;19;20633;-30
2023/08/07 09:35:14;;;;;;;2.03;1.35;;;21.40;99.90;;;;;;4592055;19;20031;-24
2023/08/07 09:36:55;;;;;;;2.78;1.38;;;21.30;99.90;;;;;;4591543;19;20014;-26
2023/08/07 09:38:36;;;;;;;1.80;1.20;;;21.30;99.90;;;;;;4591641;19;20026;-31
2023/08/07 09:40:17;;;;;;;2.75;1.50;;;21.30;99.90;;;;;;4591648;19;20106;-27
2023/08/07 09:42:00;;;;;;;3.75;1.40;;;21.30;99.90;;;;;;4588303;19;20059;-30
2023/08/07 09:43:40;;;;;;;2.10;1.20;;;21.30;99.90;;;;;;4590129;19;20023;-23
2023/08/07 09:45:24;;;;;;;2.25;1.40;;;21.30;99.90;;;;;;4590869;19;20547;-28
2023/08/07 09:47:13;;;;;;;2.55;1.35;;;21.30;99.90;;;;;;4592694;19;20014;-26
2023/08/07 09:49:04;;;;;;;3.65;1.25;;;21.20;99.90;;;;;;4592457;19;20112;-26
2023/08/07 09:50:45;;;;;;;2.03;1.33;;;21.30;99.90;;;;;;4588757;19;20015;-26
2023/08/07 09:52:19;;;;;;;2.92;1.40;;;21.30;99.90;;;;;;4591636;19;20010;-27
2023/08/07 09:53:51;;;;;;;3.92;1.70;;;21.30;99.90;;;;;;4590814;19;20094;-29
2023/08/07 09:55:28;;;;;;;3.03;1.50;;;21.30;99.90;;;;;;4591241;19;20015;-30
2023/08/07 09:57:18;;;;;;;1.88;1.20;;;21.40;99.90;;;;;;4591623;19;20018;-26
2023/08/07 09:58:52;;;;;;;2.55;1.33;;;21.30;99.90;;;;;;4590082;19;20011;-25
2023/08/07 10:00:26;;;;;;;2.65;1.45;;;21.30;99.90;;;;;;4591518;19;20613;-26
2023/08/07 10:02:00;;;;;;;4.05;2.15;;;21.30;99.90;;;;;;4588889;19;20027;-27
2023/08/07 10:03:31;;;;;;;2.33;1.20;;;21.20;99.90;;;;;;4588583;19;20014;-26
2023/08/07 10:05:08;;;;;;;1.85;1.05;;;21.20;99.90;;;;;;4591494;19;20021;-26
2023/08/07 10:06:39;;;;;;;2.03;1.05;;;21.20;99.90;;;;;;4590447;19;20113;-26
2023/08/07 10:08:11;;;;;;;1.52;1.00;;;21.20;99.90;;;;;;4590444;19;20023;-27
2023/08/07 10:09:42;;;;;;;1.90;1.10;;;21.20;99.90;;;;;;4590028;19;20011;-30
2023/08/07 10:11:14;;;;;;;1.63;1.10;;;21.20;99.90;;;;;;4588986;19;20415;-30
2023/08/07 10:12:47;;;;;;;1.88;1.20;;;21.20;99.90;;;;;;4591106;19;20082;-26
2023/08/07 10:14:19;;;;;;;2.13;1.23;;;21.30;99.90;;;;;;4589771;19;20033;-26
2023/08/07 10:15:50;;;;;;;1.75;0.90;;;21.30;99.90;;;;;;4591368;19;20047;-32
2023/08/07 10:17:24;;;;;;;1.27;1.00;;;21.30;99.90;;;;;;4589325;19;20014;-27
2023/08/07 10:18:56;;;;;;;1.83;1.10;;;21.30;99.90;;;;;;4591485;19;20495;-26
2023/08/07 10:20:28;;;;;;;2.15;1.30;;;21.30;99.90;;;;;;4590466;19;20011;-26
2023/08/07 10:22:01;;;;;;;2.47;1.38;;;21.30;99.90;;;;;;4590473;19;20038;-28
2023/08/07 10:23:35;;;;;;;;;;;21.30;99.90;;;;;;4591944;19;20041;-31
2023/08/07 10:25:07;;;;;;;3.75;1.45;;;21.30;99.90;;;;;;4591709;19;19916;-31
2023/08/07 10:26:41;;;;;;;3.42;1.20;;;21.30;99.90;;;;;;4591230;19;20023;-26
2023/08/07 10:28:14;;;;;;;1.58;1.05;;;21.30;99.90;;;;;;4589416;19;20346;-27
2023/08/07 10:29:47;;;;;;;2.53;1.20;;;21.30;99.90;;;;;;4591133;19;20384;-26
2023/08/07 10:31:19;;;;;;;1.48;1.13;;;21.40;99.90;;;;;;4590195;19;20046;-29
2023/08/07 10:32:51;;;;;;;2.38;1.30;;;21.40;99.90;;;;;;4591052;19;20022;-26
2023/08/07 10:34:23;;;;;;;2.25;1.10;;;21.40;99.90;;;;;;4589880;19;20476;-31
2023/08/07 10:35:59;;;;;;;2.17;1.30;;;21.30;99.90;;;;;;4589643;19;20018;-26
2023/08/07 10:37:40;;;;;;;2.30;1.00;;;21.40;99.90;;;;;;4591546;19;20480;-29
2023/08/07 10:39:12;;;;;;;3.97;1.50;;;21.40;99.90;;;;;;4590223;19;20018;-24
2023/08/07 10:40:58;;;;;;;;;;;21.70;99.90;;;;;;4591201;19;20085;-28
2023/08/07 10:42:51;;;;;;;2.40;1.75;;;21.70;99.90;;;;;;4588737;19;19929;-26
2023/08/07 10:44:25;;;;;;;2.75;1.38;;;21.90;99.90;;;;;;4589560;19;20364;-28
2023/08/07 10:46:06;;;;;;;2.38;1.17;;;22.10;99.90;;;;;;4592053;19;20021;-26
2023/08/07 10:47:38;;;;;;;1.65;1.00;;;22.10;99.90;;;;;;4589347;19;20023;-26
2023/08/07 10:49:09;;;;;;;3.55;1.35;;;22.20;99.90;;;;;;4590329;19;20015;-25
2023/08/07 10:50:51;;;;;;;3.53;1.48;;;22.30;99.90;;;;;;4588987;19;20022;-26
2023/08/07 10:52:25;;;;;;;2.22;1.13;;;22.40;99.90;;;;;;4590946;19;20482;-26
2023/08/07 10:53:56;;;;;;;3.58;1.73;;;22.20;99.90;;;;;;4590132;19;20045;-30
2023/08/07 10:55:32;;;;;;;2.13;1.48;;;22.20;99.90;;;;;;4590647;19;20010;-26
2023/08/07 10:57:04;;;;;;;2.08;1.50;;;22.20;99.90;;;;;;4590664;19;20015;-31
2023/08/07 10:58:37;;;;;;;3.03;1.45;;;22.20;99.90;;;;;;4589242;19;20273;-26
2023/08/07 11:00:09;;;;;;;3.55;1.55;;;22.10;99.90;;;;;;4590900;19;20476;-26
2023/08/07 11:01:43;;;;;;;3.13;1.63;;;22.10;99.90;;;;;;4589790;19;20034;-28
2023/08/07 11:03:27;;;;;;;4.90;1.83;;;22.00;99.90;;;;;;4590736;19;20014;-25
2023/08/07 11:04:58;;;;;;;2.63;1.65;;;21.90;99.90;;;;;;4590725;19;20018;-26
2023/08/07 11:06:31;;;;;;;3.33;1.88;;;21.90;99.90;;;;;;4588988;19;20022;-30
2023/08/07 11:08:02;;;;;;;2.50;1.50;;;21.90;99.90;;;;;;4589342;19;20025;-26
2023/08/07 11:09:34;;;;;;;4.95;2.05;;;21.90;99.90;;;;;;4589705;19;20480;-27
2023/08/07 11:11:10;;;;;;;3.20;1.60;;;21.90;99.90;;;;;;4590362;19;20482;-26
2023/08/07 11:12:48;;;;;;;2.40;1.70;;;21.90;99.90;;;;;;4589866;19;20114;-27
2023/08/07 11:14:21;;;;;;;3.03;1.77;;;21.90;99.90;;;;;;4588832;19;20099;-27
2023/08/07 11:15:54;;;;;;;2.88;1.60;;;21.90;99.90;;;;;;4590225;19;20425;-32
2023/08/07 11:17:26;;;;;;;2.63;1.50;;;21.90;99.90;;;;;;4589470;19;20432;-26
2023/08/07 11:18:57;;;;;;;3.80;1.50;;;21.90;99.90;;;;;;4590767;19;20415;-26
2023/08/07 11:20:28;;;;;;;;;;;21.80;99.90;;;;;;4589857;19;20020;-31
2023/08/07 11:21:59;;;;;;;3.63;1.83;;;21.80;99.90;;;;;;4588831;19;20285;-26
2023/08/07 11:23:30;;;;;;;2.70;1.38;;;21.70;99.90;;;;;;4589523;19;20006;-27
2023/08/07 11:25:02;;;;;;;2.95;1.58;;;21.70;99.90;;;;;;4589602;19;20073;-26
2023/08/07 11:26:34;;;;;;;2.78;1.85;;;21.70;99.90;;;;;;4590122;19;20104;-26
2023/08/07 11:28:05;;;;;;;1.77;1.38;;;21.70;99.90;;;;;;4588032;19;20036;-30
2023/08/07 11:29:37;;;;;;;2.17;1.40;;;21.70;99.90;;;;;;4589918;19;20093;-31
2023/08/07 11:31:08;;;;;;;3.00;1.50;;;21.70;99.90;;;;;;4588861;19;20037;-25
2023/08/07 11:32:39;;;;;;;2.00;1.40;;;21.70;99.90;;;;;;4588675;19;20006;-30
2023/08/07 11:34:11;;;;;;;3.08;1.50;;;21.60;99.90;;;;;;4589329;19;20010;-26
2023/08/07 11:35:43;;;;;;;4.07;1.30;;;21.60;99.90;;;;;;4588480;19;20006;-26
2023/08/07 11:37:17;;;;;;;3.50;1.65;;;21.50;99.90;;;;;;4589943;19;20093;-32
2023/08/07 11:38:48;;;;;;;3.33;1.65;;;21.50;99.90;;;;;;4589245;19;20089;-26
2023/08/07 11:40:20;;;;;;;3.92;1.80;;;21.50;99.90;;;;;;4589726;19;20034;-26
2023/08/07 11:41:55;;;;;;;3.83;1.80;;;21.50;99.90;;;;;;4588865;19;20027;-27
2023/08/07 13:07:46;;;;;;;4.05;1.80;;;21.80;99.90;;;;;;4542468;19;20017;-26
2023/08/07 13:09:18;;;;;;;3.22;2.05;;;21.70;99.90;;;;;;4588709;19;20040;-26
2023/08/07 13:10:49;;;;;;;5.30;1.73;;;21.70;99.90;;;;;;4589512;19;20010;-26
2023/08/07 13:12:20;;;;;;;2.50;1.40;;;21.70;99.90;;;;;;4590410;19;20343;-25
2023/08/07 13:13:51;;;;;;;3.30;1.80;;;21.70;99.90;;;;;;4588618;19;20086;-26
2023/08/07 13:15:25;;;;;;;2.58;1.50;;;21.70;99.90;;;;;;4589272;19;20021;-28
2023/08/07 13:16:57;;;;;;;5.00;1.67;;;21.70;99.90;;;;;;4588088;19;20010;-29
2023/08/07 13:18:31;;;;;;;5.80;1.67;;;21.70;99.90;;;;;;4589811;19;20006;-27
2023/08/07 13:20:07;;;;;;;3.83;1.40;;;21.70;99.90;;;;;;4591202;19;20011;-24
2023/08/07 13:21:38;;;;;;;1.90;1.20;;;21.80;99.90;;;;;;4589413;19;20007;-26
2023/08/07 13:23:11;;;;;;;3.60;1.60;;;21.80;99.90;;;;;;4589029;19;20011;-26
2023/08/07 13:24:45;;;;;;;4.80;1.63;;;22.00;99.90;;;;;;4589741;19;20002;-26
2023/08/07 13:26:17;;;;;;;4.28;2.05;;;22.20;99.90;;;;;;4592111;19;20033;-27
2023/08/07 13:27:49;;;;;;;6.45;1.80;;;22.30;99.90;;;;;;4588082;19;20011;-25
2023/08/07 13:29:21;;;;;;;5.30;2.42;;;22.30;99.90;;;;;;4588948;19;20186;-26
2023/08/07 13:30:56;;;;;;;3.88;2.10;;;22.30;99.90;;;;;;4589950;19;20011;-24
2023/08/07 13:32:28;;;;;;;3.08;2.00;;;22.40;99.90;;;;;;4588350;19;20010;-24
2023/08/07 13:34:07;;;;;;;4.78;1.98;;;22.30;99.90;;;;;;4590786;19;20042;-28
2023/08/07 13:35:39;;;;;;;3.15;1.65;;;22.30;99.90;;;;;;4588762;19;20033;-28
2023/08/07 13:37:11;;;;;;;3.78;1.65;;;22.30;99.90;;;;;;4589228;19;20022;-25
2023/08/07 13:38:42;;;;;;;4.47;2.60;;;22.30;99.90;;;;;;4589292;19;20473;-26
2023/08/07 13:40:13;;;;;;;3.78;2.10;;;22.30;99.90;;;;;;4589629;19;20028;-26
2023/08/07 13:41:45;;;;;;;3.13;1.90;;;22.30;99.90;;;;;;4590136;19;20002;-26
2023/08/07 13:43:17;;;;;;;4.28;1.85;;;22.20;99.90;;;;;;4589521;19;20022;-26
2023/08/07 13:44:49;;;;;;;2.50;1.73;;;22.20;99.90;;;;;;4587988;19;20014;-26
2023/08/07 13:46:20;;;;;;;3.05;2.00;;;22.20;99.90;;;;;;4592738;19;20089;-31
2023/08/07 13:47:51;;;;;;;5.80;2.03;;;22.10;99.90;;;;;;4594036;19;20025;-30
2023/08/07 13:49:23;;;;;;;3.47;1.70;;;22.10;99.90;;;;;;4594493;19;20082;-26
2023/08/07 13:50:55;;;;;;;3.20;2.00;;;22.00;99.90;;;;;;4595517;19;20018;-27
2023/08/07 13:52:27;;;;;;;2.90;1.45;;;21.90;99.90;;;;;;4595195;19;20014;-25
2023/08/07 13:53:58;;;;;;;4.75;1.98;;;21.80;99.90;;;;;;4596701;19;20082;-26
2023/08/07 13:55:29;;;;;;;2.03;1.23;;;21.70;99.90;;;;;;4594218;19;20479;-28
2023/08/07 13:57:01;;;;;;;4.47;2.03;;;21.60;99.90;;;;;;4594892;19;20027;-26
2023/08/07 13:58:33;;;;;;;3.42;2.08;;;21.70;99.90;;;;;;4594370;19;20015;-29
2023/08/07 14:00:08;;;;;;;3.90;1.98;;;21.80;99.90;;;;;;4594499;19;20571;-26
2023/08/07 14:01:39;;;;;;;3.35;1.73;;;21.90;99.90;;;;;;4592292;19;20027;-26
2023/08/07 14:03:12;;;;;;;5.10;1.90;;;22.10;99.90;;;;;;4593109;19;20382;-26
2023/08/07 14:04:45;;;;;;;3.53;1.90;;;22.10;99.90;;;;;;4594322;19;20034;-28
2023/08/07 14:06:16;;;;;;;5.97;2.28;;;22.10;99.90;;;;;;4593208;19;20491;-26
2023/08/07 14:07:48;;;;;;;4.72;2.25;;;22.20;99.90;;;;;;4591928;19;20360;-25
2023/08/07 14:09:21;;;;;;;3.55;2.05;;;22.30;99.90;;;;;;4592600;19;20102;-26
2023/08/07 14:10:53;;;;;;;3.45;2.00;;;22.40;99.90;;;;;;4592958;19;20015;-26
2023/08/07 14:12:24;;;;;;;5.05;1.95;;;22.30;99.90;;;;;;4594333;19;20006;-29
2023/08/07 14:13:58;;;;;;;3.35;2.00;;;22.30;99.90;;;;;;4589559;19;20014;-28
2023/08/07 14:15:30;;;;;;;6.20;2.13;;;22.30;99.90;;;;;;4591914;19;20033;-29
2023/08/07 14:17:02;;;;;;;3.90;1.98;;;22.30;99.90;;;;;;4593372;19;20674;-29
2023/08/07 14:18:33;;;;;;;4.32;1.90;;;22.30;99.90;;;;;;4591634;19;20653;-26
2023/08/07 14:20:06;;;;;;;2.38;1.73;;;22.20;99.90;;;;;;4592554;19;20014;-29
2023/08/07 14:21:37;;;;;;;6.07;2.80;;;22.20;99.90;;;;;;4593156;19;20037;-26
2023/08/07 14:23:08;;;;;;;3.72;2.03;;;22.10;99.90;;;;;;4592939;19;20015;-27
2023/08/07 14:24:40;;;;;;;2.67;1.70;;;22.10;99.90;;;;;;4593032;19;20021;-26
2023/08/07 14:26:14;;;;;;;3.00;1.83;;;22.10;99.90;;;;;;4594124;19;20002;-26
2023/08/07 14:27:45;;;;;;;4.72;2.10;;;22.00;99.90;;;;;;4592007;19;20036;-30
2023/08/07 14:29:16;;;;;;;10.55;2.28;;;22.10;99.90;;;;;;4592488;19;20482;-29
2023/08/07 14:30:47;;;;;;;2.47;1.50;;;22.20;99.90;;;;;;4592660;19;20081;-29
2023/08/07 14:32:19;;;;;;;2.85;1.85;;;22.10;99.90;;;;;;4591070;19;20522;-26
2023/08/07 14:33:51;;;;;;;3.17;1.70;;;22.00;99.90;;;;;;4592376;19;20014;-25
2023/08/07 14:35:22;;;;;;;2.47;1.35;;;21.90;99.90;;;;;;4592503;19;20097;-24
2023/08/07 14:36:54;;;;;;;2.83;1.75;;;22.00;99.90;;;;;;4593027;19;20010;-26
2023/08/07 14:38:26;;;;;;;2.67;1.52;;;21.90;99.90;;;;;;4592164;19;20010;-26
2023/08/07 14:39:57;;;;;;;2.75;1.48;;;21.90;99.90;;;;;;4591855;19;20022;-30
2023/08/07 14:41:28;;;;;;;2.50;1.63;;;21.90;99.90;;;;;;4593290;19;20495;-29
2023/08/07 14:43:00;;;;;;;3.30;1.77;;;21.90;99.90;;;;;;4592538;19;20025;-27
2023/08/07 14:44:32;;;;;;;3.58;2.28;;;21.80;99.90;;;;;;4591763;19;20022;-26
2023/08/07 14:46:03;;;;;;;3.00;1.80;;;21.90;99.90;;;;;;4592041;19;20461;-26
2023/08/07 14:47:35;;;;;;;4.05;1.85;;;22.20;99.90;;;;;;4591945;19;20035;-26
2023/08/07 14:49:08;;;;;;;3.83;1.88;;;22.20;99.90;;;;;;4591671;19;20463;-26
2023/08/07 14:50:40;;;;;;;2.88;1.90;;;22.30;99.90;;;;;;4592726;19;20023;-26
2023/08/07 14:52:12;;;;;;;3.67;1.95;;;22.30;99.90;;;;;;4592801;19;20014;-26
2023/08/07 14:53:43;;;;;;;3.53;1.63;;;22.20;99.90;;;;;;4592452;19;20335;-25
2023/08/07 14:55:16;;;;;;;3.47;2.13;;;22.20;99.90;;;;;;4592438;19;20021;-28
2023/08/07 14:56:48;;;;;;;2.55;1.80;;;22.10;99.90;;;;;;4591878;19;20033;-27
2023/08/07 14:58:19;;;;;;;3.70;2.10;;;22.10;99.90;;;;;;4591962;19;20015;-29
2023/08/07 14:59:50;;;;;;;2.22;1.58;;;22.30;99.90;;;;;;4592515;19;20010;-26
2023/08/07 15:01:22;;;;;;;4.05;1.90;;;22.40;99.90;;;;;;4592842;19;20354;-25
2023/08/07 15:02:53;;;;;;;2.33;1.50;;;22.40;99.90;;;;;;4591142;19;20002;-26
2023/08/07 15:04:24;;;;;;;2.33;1.60;;;22.30;99.90;;;;;;4592498;19;20022;-29
2023/08/07 15:05:57;;;;;;;3.95;1.98;;;22.20;99.90;;;;;;4592199;19;20081;-33
2023/08/07 15:07:28;;;;;;;2.65;1.60;;;22.10;99.90;;;;;;4592342;19;20336;-26
2023/08/07 15:09:01;;;;;;;4.32;1.60;;;22.10;99.90;;;;;;4591111;19;20010;-25
2023/08/07 15:10:35;;;;;;;3.78;1.92;;;22.20;99.90;;;;;;4592138;19;20029;-26
2023/08/07 15:12:07;;;;;;;2.75;1.75;;;22.10;99.90;;;;;;4592307;19;20006;-29
2023/08/07 15:13:40;;;;;;;3.28;1.90;;;22.20;99.90;;;;;;4592397;19;20074;-27
2023/08/07 15:15:12;;;;;;;4.10;1.95;;;22.10;99.90;;;;;;4592733;19;20006;-29
2023/08/07 15:16:44;;;;;;;4.35;2.05;;;22.20;99.90;;;;;;4592048;19;20505;-25
2023/08/07 15:18:15;;;;;;;3.13;2.00;;;22.20;99.90;;;;;;4592386;19;20007;-26
2023/08/07 15:19:48;;;;;;;3.00;2.05;;;22.20;99.90;;;;;;4592151;19;20078;-27
2023/08/07 15:21:21;;;;;;;2.42;1.55;;;22.20;99.90;;;;;;4592333;19;20003;-26
2023/08/07 15:22:52;;;;;;;3.08;2.00;;;22.20;99.90;;;;;;4591952;19;20014;-26
2023/08/07 15:24:24;;;;;;;3.75;2.47;;;22.20;99.90;;;;;;4590869;19;20015;-28
2023/08/07 15:25:56;;;;;;;4.30;2.10;;;22.20;99.90;;;;;;4591470;19;20413;-31
2023/08/07 15:27:28;;;;;;;2.00;1.35;;;22.30;99.90;;;;;;4589611;19;19998;-30
2023/08/07 15:29:00;;;;;;;4.18;1.42;;;22.20;99.90;;;;;;4590309;19;20013;-26
2023/08/07 15:30:31;;;;;;;2.55;1.45;;;22.10;99.90;;;;;;4591662;19;20365;-26
2023/08/07 15:32:03;;;;;;;2.20;1.20;;;22.00;99.90;;;;;;4589381;19;20078;-26
2023/08/07 15:33:34;;;;;;;2.38;1.45;;;21.90;99.90;;;;;;4589700;19;20055;-26